| Date | Time | Temp. (oF) | Dew Point (oF) | Rel. Hum. (%) | Press. (in.) | Wind Dir. | Wind Speed (mph) | Hourly Rainfall (in.) |
|
|---|---|---|---|---|---|---|---|---|---|
| 1 | 02/25 | 00:00 | 15 | 9 | 80 | 29.81 | NNE | 0 | 0.00 |
| 2 | 02/24 | 23:00 | 15 | 9 | 77 | 29.83 | S | 0 | 0.00 |
| 3 | 02/24 | 22:00 | 15 | 8 | 74 | 29.86 | WSW | 0 | 0.00 |
| 4 | 02/24 | 21:00 | 16 | 8 | 71 | 29.88 | SE | 1 | 0.00 |
| 5 | 02/24 | 20:00 | 19 | 6 | 58 | 29.90 | ESE | 2 | 0.00 |
| 6 | 02/24 | 19:00 | 19 | 3 | 50 | 29.91 | W | 7 | 0.00 |
| 7 | 02/24 | 18:00 | 20 | 3 | 48 | 29.92 | SSW | 9 | 0.00 |
| 8 | 02/24 | 17:00 | 20 | 2 | 47 | 29.93 | S | 7 | 0.00 |
| 9 | 02/24 | 16:00 | 21 | 2 | 44 | 29.97 | WNW | 6 | 0.00 |
| 10 | 02/24 | 15:00 | 21 | 1 | 43 | 29.99 | S | 9 | 0.00 |
| 11 | 02/24 | 14:00 | 20 | 2 | 45 | 30.05 | SSE | 7 | 0.00 |
| 12 | 02/24 | 13:00 | 20 | 1 | 43 | 30.11 | SSW | 5 | 0.00 |
| 13 | 02/24 | 12:00 | 18 | -1 | 42 | 30.18 | S | 5 | 0.00 |
| 14 | 02/24 | 11:00 | 16 | -4 | 40 | 30.24 | SSE | 8 | 0.00 |
| 15 | 02/24 | 10:00 | 13 | -4 | 44 | 30.27 | NNW | 4 | 0.00 |
| 16 | 02/24 | 09:00 | 11 | -4 | 50 | 30.29 | SW | 2 | 0.00 |
| 17 | 02/24 | 08:00 | 4 | 0 | 86 | 30.32 | S | 4 | 0.00 |
| 18 | 02/24 | 07:00 | 1 | -3 | 82 | 30.31 | SE | 0 | 0.00 |
| 19 | 02/24 | 06:00 | 2 | -4 | 74 | 30.32 | E | 0 | 0.00 |
| 20 | 02/24 | 05:00 | 4 | -2 | 73 | 30.33 | W | 0 | 0.00 |
| 21 | 02/24 | 04:00 | 4 | -3 | 71 | 30.34 | NNE | 0 | 0.00 |
| 22 | 02/24 | 03:00 | 7 | -4 | 58 | 30.37 | NNE | 0 | 0.00 |
| 23 | 02/24 | 02:00 | 7 | -3 | 61 | 30.38 | S | 0 | 0.00 |
| 24 | 02/24 | 01:00 | 9 | -4 | 53 | 30.38 | NNE | 0 | 0.00 |